sensor_id;sensor_type;location;lat;lon;timestamp;P1;durP1;ratioP1;P2;durP2;ratioP2
3817;SDS011;1924;48.078;11.516;2023-05-07T00:01:57;30.67;;;0.80;;
3817;SDS011;1924;48.078;11.516;2023-05-07T00:04:24;30.60;;;0.80;;
3817;SDS011;1924;48.078;11.516;2023-05-07T00:06:51;30.47;;;0.80;;
3817;SDS011;1924;48.078;11.516;2023-05-07T00:09:18;30.60;;;0.80;;
3817;SDS011;1924;48.078;11.516;2023-05-07T00:11:46;30.30;;;0.80;;
3817;SDS011;1924;48.078;11.516;2023-05-07T00:14:12;30.77;;;0.80;;
3817;SDS011;1924;48.078;11.516;2023-05-07T00:16:39;30.70;;;0.80;;
3817;SDS011;1924;48.078;11.516;2023-05-07T00:19:06;30.60;;;0.80;;
3817;SDS011;1924;48.078;11.516;2023-05-07T00:21:32;30.70;;;0.80;;
3817;SDS011;1924;48.078;11.516;2023-05-07T00:23:59;30.50;;;0.80;;
3817;SDS011;1924;48.078;11.516;2023-05-07T00:26:26;30.57;;;0.80;;
3817;SDS011;1924;48.078;11.516;2023-05-07T00:28:54;30.70;;;0.80;;
3817;SDS011;1924;48.078;11.516;2023-05-07T00:31:20;30.60;;;0.80;;
3817;SDS011;1924;48.078;11.516;2023-05-07T00:33:47;30.80;;;0.80;;
3817;SDS011;1924;48.078;11.516;2023-05-07T00:36:14;30.80;;;0.80;;
3817;SDS011;1924;48.078;11.516;2023-05-07T00:38:40;30.90;;;0.80;;
3817;SDS011;1924;48.078;11.516;2023-05-07T00:41:07;30.87;;;0.80;;
3817;SDS011;1924;48.078;11.516;2023-05-07T00:43:34;30.80;;;0.80;;
3817;SDS011;1924;48.078;11.516;2023-05-07T00:46:02;30.70;;;0.80;;
3817;SDS011;1924;48.078;11.516;2023-05-07T00:48:28;30.70;;;0.80;;
3817;SDS011;1924;48.078;11.516;2023-05-07T00:50:56;30.70;;;0.80;;
3817;SDS011;1924;48.078;11.516;2023-05-07T00:53:22;30.70;;;0.80;;
3817;SDS011;1924;48.078;11.516;2023-05-07T00:55:49;30.73;;;0.80;;
3817;SDS011;1924;48.078;11.516;2023-05-07T00:58:16;30.73;;;0.80;;
3817;SDS011;1924;48.078;11.516;2023-05-07T01:00:43;30.70;;;0.80;;
3817;SDS011;1924;48.078;11.516;2023-05-07T01:03:12;30.70;;;0.80;;
3817;SDS011;1924;48.078;11.516;2023-05-07T01:05:38;30.63;;;0.80;;
3817;SDS011;1924;48.078;11.516;2023-05-07T01:08:05;30.60;;;0.80;;
3817;SDS011;1924;48.078;11.516;2023-05-07T01:10:32;30.80;;;0.80;;
3817;SDS011;1924;48.078;11.516;2023-05-07T01:12:59;30.70;;;0.80;;
3817;SDS011;1924;48.078;11.516;2023-05-07T01:15:26;30.80;;;0.80;;
3817;SDS011;1924;48.078;11.516;2023-05-07T01:17:53;30.70;;;0.80;;
3817;SDS011;1924;48.078;11.516;2023-05-07T01:20:23;30.83;;;0.80;;
3817;SDS011;1924;48.078;11.516;2023-05-07T01:22:52;30.73;;;0.80;;
3817;SDS011;1924;48.078;11.516;2023-05-07T01:25:19;30.70;;;0.80;;
3817;SDS011;1924;48.078;11.516;2023-05-07T01:27:46;30.80;;;0.80;;
3817;SDS011;1924;48.078;11.516;2023-05-07T01:30:13;30.70;;;0.80;;
3817;SDS011;1924;48.078;11.516;2023-05-07T01:32:40;30.60;;;0.80;;
3817;SDS011;1924;48.078;11.516;2023-05-07T01:35:09;30.60;;;0.80;;
3817;SDS011;1924;48.078;11.516;2023-05-07T01:37:38;30.70;;;0.80;;
3817;SDS011;1924;48.078;11.516;2023-05-07T01:40:07;30.77;;;0.80;;
3817;SDS011;1924;48.078;11.516;2023-05-07T01:42:34;30.80;;;0.80;;
3817;SDS011;1924;48.078;11.516;2023-05-07T01:45:02;30.90;;;0.80;;
3817;SDS011;1924;48.078;11.516;2023-05-07T01:47:29;30.47;;;0.80;;
3817;SDS011;1924;48.078;11.516;2023-05-07T01:49:56;30.80;;;0.80;;
3817;SDS011;1924;48.078;11.516;2023-05-07T01:52:24;30.57;;;0.80;;
3817;SDS011;1924;48.078;11.516;2023-05-07T01:54:50;30.70;;;0.80;;
3817;SDS011;1924;48.078;11.516;2023-05-07T01:57:18;30.77;;;0.80;;
3817;SDS011;1924;48.078;11.516;2023-05-07T01:59:45;30.53;;;0.80;;
3817;SDS011;1924;48.078;11.516;2023-05-07T02:02:12;30.70;;;0.80;;
3817;SDS011;1924;48.078;11.516;2023-05-07T02:04:39;30.70;;;0.80;;
3817;SDS011;1924;48.078;11.516;2023-05-07T02:07:05;30.60;;;0.80;;
3817;SDS011;1924;48.078;11.516;2023-05-07T02:09:32;30.80;;;0.80;;
3817;SDS011;1924;48.078;11.516;2023-05-07T02:11:59;30.70;;;0.80;;
3817;SDS011;1924;48.078;11.516;2023-05-07T02:14:27;30.87;;;0.80;;
3817;SDS011;1924;48.078;11.516;2023-05-07T02:16:54;30.77;;;0.80;;
3817;SDS011;1924;48.078;11.516;2023-05-07T02:19:21;30.70;;;0.80;;
3817;SDS011;1924;48.078;11.516;2023-05-07T02:21:47;30.80;;;0.80;;
3817;SDS011;1924;48.078;11.516;2023-05-07T02:24:14;30.63;;;0.80;;
3817;SDS011;1924;48.078;11.516;2023-05-07T02:26:41;30.77;;;0.80;;
3817;SDS011;1924;48.078;11.516;2023-05-07T02:29:08;30.37;;;0.80;;
3817;SDS011;1924;48.078;11.516;2023-05-07T02:31:36;30.70;;;0.80;;
3817;SDS011;1924;48.078;11.516;2023-05-07T02:34:02;30.60;;;0.80;;
3817;SDS011;1924;48.078;11.516;2023-05-07T02:36:29;30.67;;;0.80;;
3817;SDS011;1924;48.078;11.516;2023-05-07T02:38:56;30.70;;;0.80;;
3817;SDS011;1924;48.078;11.516;2023-05-07T02:41:22;30.70;;;0.80;;
3817;SDS011;1924;48.078;11.516;2023-05-07T04:00:24;30.60;;;0.80;;
3817;SDS011;1924;48.078;11.516;2023-05-07T04:02:51;30.70;;;0.80;;
3817;SDS011;1924;48.078;11.516;2023-05-07T04:05:18;30.80;;;0.80;;
3817;SDS011;1924;48.078;11.516;2023-05-07T04:07:44;30.60;;;0.80;;
3817;SDS011;1924;48.078;11.516;2023-05-07T04:10:11;30.70;;;0.80;;
3817;SDS011;1924;48.078;11.516;2023-05-07T04:12:38;30.60;;;0.80;;
3817;SDS011;1924;48.078;11.516;2023-05-07T04:15:05;30.50;;;0.80;;
3817;SDS011;1924;48.078;11.516;2023-05-07T04:17:34;30.60;;;0.80;;
3817;SDS011;1924;48.078;11.516;2023-05-07T04:20:01;30.63;;;0.80;;
3817;SDS011;1924;48.078;11.516;2023-05-07T04:22:27;30.57;;;0.80;;
3817;SDS011;1924;48.078;11.516;2023-05-07T04:24:54;30.70;;;0.80;;
3817;SDS011;1924;48.078;11.516;2023-05-07T04:27:21;30.60;;;0.80;;
3817;SDS011;1924;48.078;11.516;2023-05-07T04:29:48;30.47;;;0.80;;
3817;SDS011;1924;48.078;11.516;2023-05-07T04:32:14;30.50;;;0.80;;
3817;SDS011;1924;48.078;11.516;2023-05-07T04:34:42;30.40;;;0.80;;
3817;SDS011;1924;48.078;11.516;2023-05-07T04:37:09;30.53;;;0.80;;
3817;SDS011;1924;48.078;11.516;2023-05-07T04:39:35;30.70;;;0.80;;
3817;SDS011;1924;48.078;11.516;2023-05-07T04:42:02;30.60;;;0.80;;
3817;SDS011;1924;48.078;11.516;2023-05-07T04:44:29;30.53;;;0.80;;
3817;SDS011;1924;48.078;11.516;2023-05-07T04:46:56;30.70;;;0.80;;
3817;SDS011;1924;48.078;11.516;2023-05-07T04:49:22;30.57;;;0.80;;
3817;SDS011;1924;48.078;11.516;2023-05-07T04:51:51;30.60;;;0.80;;
3817;SDS011;1924;48.078;11.516;2023-05-07T04:54:18;30.53;;;0.80;;
3817;SDS011;1924;48.078;11.516;2023-05-07T04:56:44;30.50;;;0.80;;
3817;SDS011;1924;48.078;11.516;2023-05-07T04:59:11;30.53;;;0.80;;
3817;SDS011;1924;48.078;11.516;2023-05-07T05:01:38;30.27;;;0.80;;
3817;SDS011;1924;48.078;11.516;2023-05-07T05:04:05;30.50;;;0.80;;
3817;SDS011;1924;48.078;11.516;2023-05-07T05:06:32;30.57;;;0.80;;
3817;SDS011;1924;48.078;11.516;2023-05-07T05:09:00;30.50;;;0.80;;
3817;SDS011;1924;48.078;11.516;2023-05-07T05:11:26;30.30;;;0.80;;
3817;SDS011;1924;48.078;11.516;2023-05-07T05:13:53;30.13;;;0.80;;
3817;SDS011;1924;48.078;11.516;2023-05-07T05:16:20;30.50;;;0.80;;
3817;SDS011;1924;48.078;11.516;2023-05-07T05:18:46;30.50;;;0.80;;
3817;SDS011;1924;48.078;11.516;2023-05-07T05:21:13;30.33;;;0.80;;
3817;SDS011;1924;48.078;11.516;2023-05-07T05:23:40;30.37;;;0.80;;
3817;SDS011;1924;48.078;11.516;2023-05-07T05:26:08;30.60;;;0.80;;
3817;SDS011;1924;48.078;11.516;2023-05-07T05:28:34;30.57;;;0.80;;
3817;SDS011;1924;48.078;11.516;2023-05-07T05:31:01;30.63;;;0.70;;
3817;SDS011;1924;48.078;11.516;2023-05-07T05:33:28;30.57;;;0.80;;
3817;SDS011;1924;48.078;11.516;2023-05-07T05:35:54;30.80;;;0.80;;
3817;SDS011;1924;48.078;11.516;2023-05-07T05:38:21;31.00;;;0.80;;
3817;SDS011;1924;48.078;11.516;2023-05-07T05:40:48;30.90;;;0.80;;
3817;SDS011;1924;48.078;11.516;2023-05-07T05:43:16;31.00;;;0.80;;
3817;SDS011;1924;48.078;11.516;2023-05-07T05:45:43;31.17;;;0.80;;
3817;SDS011;1924;48.078;11.516;2023-05-07T05:48:09;31.10;;;0.80;;
3817;SDS011;1924;48.078;11.516;2023-05-07T05:50:36;30.97;;;0.80;;
3817;SDS011;1924;48.078;11.516;2023-05-07T05:53:03;30.97;;;0.80;;
3817;SDS011;1924;48.078;11.516;2023-05-07T05:55:30;31.00;;;0.80;;
3817;SDS011;1924;48.078;11.516;2023-05-07T05:57:57;31.10;;;0.80;;
3817;SDS011;1924;48.078;11.516;2023-05-07T06:00:26;30.90;;;0.80;;
3817;SDS011;1924;48.078;11.516;2023-05-07T06:02:52;31.17;;;0.80;;
3817;SDS011;1924;48.078;11.516;2023-05-07T06:05:19;30.90;;;0.80;;
3817;SDS011;1924;48.078;11.516;2023-05-07T06:07:46;30.77;;;0.73;;
3817;SDS011;1924;48.078;11.516;2023-05-07T06:10:13;30.63;;;0.80;;
3817;SDS011;1924;48.078;11.516;2023-05-07T06:12:39;30.70;;;0.80;;
3817;SDS011;1924;48.078;11.516;2023-05-07T06:15:06;30.60;;;0.80;;
3817;SDS011;1924;48.078;11.516;2023-05-07T06:17:35;30.60;;;0.80;;
3817;SDS011;1924;48.078;11.516;2023-05-07T06:20:04;30.67;;;0.80;;
3817;SDS011;1924;48.078;11.516;2023-05-07T06:22:32;30.60;;;0.80;;
3817;SDS011;1924;48.078;11.516;2023-05-07T06:24:59;30.60;;;0.80;;
3817;SDS011;1924;48.078;11.516;2023-05-07T06:27:26;30.50;;;0.80;;
3817;SDS011;1924;48.078;11.516;2023-05-07T06:29:53;30.33;;;0.80;;
3817;SDS011;1924;48.078;11.516;2023-05-07T06:32:19;30.40;;;0.80;;
3817;SDS011;1924;48.078;11.516;2023-05-07T06:34:48;30.40;;;0.80;;
3817;SDS011;1924;48.078;11.516;2023-05-07T06:37:14;30.30;;;0.80;;
3817;SDS011;1924;48.078;11.516;2023-05-07T06:39:41;30.20;;;0.80;;
3817;SDS011;1924;48.078;11.516;2023-05-07T06:42:08;30.20;;;0.80;;
3817;SDS011;1924;48.078;11.516;2023-05-07T06:44:35;30.27;;;0.80;;
3817;SDS011;1924;48.078;11.516;2023-05-07T06:47:01;30.30;;;0.80;;
3817;SDS011;1924;48.078;11.516;2023-05-07T06:49:28;30.13;;;0.80;;
3817;SDS011;1924;48.078;11.516;2023-05-07T06:51:56;30.17;;;0.80;;
3817;SDS011;1924;48.078;11.516;2023-05-07T06:54:23;30.17;;;0.80;;
3817;SDS011;1924;48.078;11.516;2023-05-07T06:56:50;30.20;;;0.80;;
3817;SDS011;1924;48.078;11.516;2023-05-07T06:59:16;30.30;;;0.80;;
3817;SDS011;1924;48.078;11.516;2023-05-07T07:01:44;30.17;;;0.80;;
3817;SDS011;1924;48.078;11.516;2023-05-07T07:04:11;30.17;;;0.77;;
3817;SDS011;1924;48.078;11.516;2023-05-07T07:06:37;30.20;;;0.80;;
3817;SDS011;1924;48.078;11.516;2023-05-07T07:09:05;30.00;;;0.80;;
3817;SDS011;1924;48.078;11.516;2023-05-07T07:11:32;30.10;;;0.80;;
3817;SDS011;1924;48.078;11.516;2023-05-07T07:13:59;30.10;;;0.80;;
3817;SDS011;1924;48.078;11.516;2023-05-07T07:16:26;30.20;;;0.80;;
3817;SDS011;1924;48.078;11.516;2023-05-07T07:18:52;30.00;;;0.80;;
3817;SDS011;1924;48.078;11.516;2023-05-07T07:21:19;30.00;;;0.77;;
3817;SDS011;1924;48.078;11.516;2023-05-07T07:23:46;29.90;;;0.80;;
3817;SDS011;1924;48.078;11.516;2023-05-07T07:26:14;30.07;;;0.80;;
3817;SDS011;1924;48.078;11.516;2023-05-07T07:28:44;30.03;;;0.80;;
3817;SDS011;1924;48.078;11.516;2023-05-07T07:31:11;30.23;;;0.80;;
3817;SDS011;1924;48.078;11.516;2023-05-07T07:33:38;30.20;;;0.80;;
3817;SDS011;1924;48.078;11.516;2023-05-07T07:36:05;30.27;;;0.80;;
3817;SDS011;1924;48.078;11.516;2023-05-07T07:38:32;29.93;;;0.80;;
3817;SDS011;1924;48.078;11.516;2023-05-07T07:40:59;29.87;;;0.80;;
3817;SDS011;1924;48.078;11.516;2023-05-07T07:43:27;30.00;;;0.80;;
3817;SDS011;1924;48.078;11.516;2023-05-07T07:45:54;30.17;;;0.80;;
3817;SDS011;1924;48.078;11.516;2023-05-07T07:48:21;30.23;;;0.80;;
3817;SDS011;1924;48.078;11.516;2023-05-07T07:50:48;30.10;;;0.80;;
3817;SDS011;1924;48.078;11.516;2023-05-07T07:53:16;30.20;;;0.80;;
3817;SDS011;1924;48.078;11.516;2023-05-07T07:55:43;30.07;;;0.80;;
3817;SDS011;1924;48.078;11.516;2023-05-07T07:58:09;30.27;;;0.80;;
3817;SDS011;1924;48.078;11.516;2023-05-07T08:00:37;30.10;;;0.80;;
3817;SDS011;1924;48.078;11.516;2023-05-07T08:03:04;30.30;;;0.80;;
3817;SDS011;1924;48.078;11.516;2023-05-07T08:05:32;30.20;;;0.77;;
3817;SDS011;1924;48.078;11.516;2023-05-07T08:07:59;30.20;;;0.80;;
3817;SDS011;1924;48.078;11.516;2023-05-07T08:10:25;30.10;;;0.80;;
3817;SDS011;1924;48.078;11.516;2023-05-07T08:12:52;30.20;;;0.80;;
3817;SDS011;1924;48.078;11.516;2023-05-07T08:15:19;30.10;;;0.80;;
3817;SDS011;1924;48.078;11.516;2023-05-07T08:17:47;30.10;;;0.80;;
3817;SDS011;1924;48.078;11.516;2023-05-07T08:20:14;30.30;;;0.80;;
3817;SDS011;1924;48.078;11.516;2023-05-07T08:22:40;30.20;;;0.73;;
3817;SDS011;1924;48.078;11.516;2023-05-07T08:25:07;30.30;;;0.73;;
3817;SDS011;1924;48.078;11.516;2023-05-07T08:27:35;30.20;;;0.80;;
3817;SDS011;1924;48.078;11.516;2023-05-07T08:30:02;30.27;;;0.73;;
3817;SDS011;1924;48.078;11.516;2023-05-07T08:32:29;30.40;;;0.80;;
3817;SDS011;1924;48.078;11.516;2023-05-07T08:34:57;30.37;;;0.80;;
3817;SDS011;1924;48.078;11.516;2023-05-07T08:37:24;30.20;;;0.80;;
3817;SDS011;1924;48.078;11.516;2023-05-07T08:39:50;30.30;;;0.80;;
3817;SDS011;1924;48.078;11.516;2023-05-07T08:42:17;30.20;;;0.70;;
3817;SDS011;1924;48.078;11.516;2023-05-07T08:44:46;30.30;;;0.80;;
3817;SDS011;1924;48.078;11.516;2023-05-07T08:47:14;30.40;;;0.80;;
3817;SDS011;1924;48.078;11.516;2023-05-07T08:49:42;30.60;;;0.80;;
3817;SDS011;1924;48.078;11.516;2023-05-07T08:52:10;30.40;;;0.80;;
3817;SDS011;1924;48.078;11.516;2023-05-07T08:54:38;30.40;;;0.80;;
3817;SDS011;1924;48.078;11.516;2023-05-07T08:57:06;30.37;;;0.70;;
3817;SDS011;1924;48.078;11.516;2023-05-07T08:59:32;30.30;;;0.80;;
3817;SDS011;1924;48.078;11.516;2023-05-07T09:01:59;30.40;;;0.70;;
3817;SDS011;1924;48.078;11.516;2023-05-07T09:04:26;30.30;;;0.80;;
3817;SDS011;1924;48.078;11.516;2023-05-07T09:06:53;30.37;;;0.80;;
3817;SDS011;1924;48.078;11.516;2023-05-07T09:09:22;30.40;;;0.77;;
3817;SDS011;1924;48.078;11.516;2023-05-07T09:11:52;30.37;;;0.80;;
3817;SDS011;1924;48.078;11.516;2023-05-07T09:14:23;30.27;;;0.80;;
3817;SDS011;1924;48.078;11.516;2023-05-07T09:16:51;30.23;;;0.80;;
3817;SDS011;1924;48.078;11.516;2023-05-07T09:19:21;30.40;;;0.70;;
3817;SDS011;1924;48.078;11.516;2023-05-07T09:21:48;30.40;;;0.80;;
3817;SDS011;1924;48.078;11.516;2023-05-07T09:24:15;30.40;;;0.80;;
3817;SDS011;1924;48.078;11.516;2023-05-07T09:26:43;30.50;;;0.80;;
3817;SDS011;1924;48.078;11.516;2023-05-07T09:29:10;30.33;;;0.80;;
3817;SDS011;1924;48.078;11.516;2023-05-07T09:31:37;30.50;;;0.80;;
3817;SDS011;1924;48.078;11.516;2023-05-07T09:34:04;30.47;;;0.80;;
3817;SDS011;1924;48.078;11.516;2023-05-07T09:36:31;30.70;;;0.80;;
3817;SDS011;1924;48.078;11.516;2023-05-07T09:38:59;30.60;;;0.80;;
3817;SDS011;1924;48.078;11.516;2023-05-07T09:41:26;30.70;;;0.80;;
3817;SDS011;1924;48.078;11.516;2023-05-07T09:43:54;30.57;;;0.80;;
3817;SDS011;1924;48.078;11.516;2023-05-07T09:46:24;30.77;;;0.80;;
3817;SDS011;1924;48.078;11.516;2023-05-07T09:48:54;30.73;;;0.80;;
3817;SDS011;1924;48.078;11.516;2023-05-07T09:51:24;30.80;;;0.80;;
3817;SDS011;1924;48.078;11.516;2023-05-07T09:53:55;30.67;;;0.80;;
3817;SDS011;1924;48.078;11.516;2023-05-07T09:56:22;30.80;;;0.80;;
3817;SDS011;1924;48.078;11.516;2023-05-07T09:58:52;30.83;;;0.80;;
3817;SDS011;1924;48.078;11.516;2023-05-07T10:01:22;30.87;;;0.80;;
3817;SDS011;1924;48.078;11.516;2023-05-07T10:03:50;30.83;;;0.80;;
3817;SDS011;1924;48.078;11.516;2023-05-07T10:06:18;30.87;;;0.80;;
3817;SDS011;1924;48.078;11.516;2023-05-07T10:08:46;30.80;;;0.80;;
3817;SDS011;1924;48.078;11.516;2023-05-07T10:11:14;30.77;;;0.80;;
3817;SDS011;1924;48.078;11.516;2023-05-07T10:13:42;31.00;;;0.80;;
3817;SDS011;1924;48.078;11.516;2023-05-07T10:16:10;30.90;;;0.80;;
3817;SDS011;1924;48.078;11.516;2023-05-07T10:18:38;30.90;;;0.70;;
3817;SDS011;1924;48.078;11.516;2023-05-07T10:21:07;31.00;;;0.80;;
3817;SDS011;1924;48.078;11.516;2023-05-07T10:23:37;30.90;;;0.80;;
3817;SDS011;1924;48.078;11.516;2023-05-07T10:26:06;31.10;;;0.80;;
3817;SDS011;1924;48.078;11.516;2023-05-07T10:28:36;31.03;;;0.80;;
3817;SDS011;1924;48.078;11.516;2023-05-07T10:31:13;31.00;;;0.80;;
3817;SDS011;1924;48.078;11.516;2023-05-07T10:33:49;30.93;;;0.80;;
3817;SDS011;1924;48.078;11.516;2023-05-07T10:36:21;30.83;;;0.80;;
3817;SDS011;1924;48.078;11.516;2023-05-07T10:38:50;30.77;;;0.80;;
3817;SDS011;1924;48.078;11.516;2023-05-07T10:41:17;31.00;;;0.80;;
3817;SDS011;1924;48.078;11.516;2023-05-07T10:43:45;31.00;;;0.80;;
3817;SDS011;1924;48.078;11.516;2023-05-07T10:46:15;30.90;;;0.80;;
3817;SDS011;1924;48.078;11.516;2023-05-07T10:51:37;31.00;;;0.80;;
3817;SDS011;1924;48.078;11.516;2023-05-07T10:54:22;31.27;;;0.80;;
3817;SDS011;1924;48.078;11.516;2023-05-07T10:56:52;31.00;;;0.80;;
3817;SDS011;1924;48.078;11.516;2023-05-07T10:59:37;31.07;;;0.80;;
3817;SDS011;1924;48.078;11.516;2023-05-07T11:02:09;31.27;;;0.80;;
3817;SDS011;1924;48.078;11.516;2023-05-07T11:04:39;31.23;;;0.80;;
3817;SDS011;1924;48.078;11.516;2023-05-07T11:07:28;31.13;;;0.80;;
3817;SDS011;1924;48.078;11.516;2023-05-07T11:09:56;31.20;;;0.80;;
3817;SDS011;1924;48.078;11.516;2023-05-07T11:15:43;31.20;;;0.80;;
3817;SDS011;1924;48.078;11.516;2023-05-07T11:18:13;31.30;;;0.80;;
3817;SDS011;1924;48.078;11.516;2023-05-07T11:20:47;31.10;;;0.80;;
3817;SDS011;1924;48.078;11.516;2023-05-07T11:26:24;31.20;;;0.80;;
3817;SDS011;1924;48.078;11.516;2023-05-07T11:28:51;31.20;;;0.80;;
3817;SDS011;1924;48.078;11.516;2023-05-07T11:31:23;31.30;;;0.80;;
3817;SDS011;1924;48.078;11.516;2023-05-07T11:33:53;31.30;;;0.80;;
3817;SDS011;1924;48.078;11.516;2023-05-07T11:36:21;31.37;;;0.80;;
3817;SDS011;1924;48.078;11.516;2023-05-07T11:38:49;31.37;;;0.80;;
3817;SDS011;1924;48.078;11.516;2023-05-07T11:41:16;31.40;;;0.80;;
3817;SDS011;1924;48.078;11.516;2023-05-07T11:43:54;31.47;;;0.80;;
3817;SDS011;1924;48.078;11.516;2023-05-07T11:46:26;31.50;;;0.80;;
3817;SDS011;1924;48.078;11.516;2023-05-07T11:48:57;31.37;;;0.80;;
3817;SDS011;1924;48.078;11.516;2023-05-07T11:51:27;31.50;;;0.80;;
3817;SDS011;1924;48.078;11.516;2023-05-07T11:53:55;31.40;;;0.80;;
3817;SDS011;1924;48.078;11.516;2023-05-07T11:56:21;31.33;;;0.80;;
3817;SDS011;1924;48.078;11.516;2023-05-07T11:58:48;31.50;;;0.80;;
3817;SDS011;1924;48.078;11.516;2023-05-07T12:01:17;31.33;;;0.80;;
3817;SDS011;1924;48.078;11.516;2023-05-07T12:03:44;31.50;;;0.80;;
3817;SDS011;1924;48.078;11.516;2023-05-07T12:06:13;31.50;;;0.80;;
3817;SDS011;1924;48.078;11.516;2023-05-07T12:08:44;31.50;;;0.80;;
3817;SDS011;1924;48.078;11.516;2023-05-07T12:11:15;31.50;;;0.80;;
3817;SDS011;1924;48.078;11.516;2023-05-07T12:13:48;31.40;;;0.80;;
3817;SDS011;1924;48.078;11.516;2023-05-07T12:16:14;31.57;;;0.80;;
3817;SDS011;1924;48.078;11.516;2023-05-07T12:18:42;31.57;;;0.80;;
3817;SDS011;1924;48.078;11.516;2023-05-07T12:21:10;31.47;;;0.80;;
3817;SDS011;1924;48.078;11.516;2023-05-07T12:23:39;31.70;;;0.80;;
3817;SDS011;1924;48.078;11.516;2023-05-07T12:26:06;31.60;;;0.80;;
3817;SDS011;1924;48.078;11.516;2023-05-07T12:28:38;31.40;;;0.80;;
3817;SDS011;1924;48.078;11.516;2023-05-07T12:31:05;31.40;;;0.80;;
3817;SDS011;1924;48.078;11.516;2023-05-07T12:33:32;32.00;;;0.80;;
3817;SDS011;1924;48.078;11.516;2023-05-07T12:36:02;31.63;;;0.80;;
3817;SDS011;1924;48.078;11.516;2023-05-07T12:38:35;31.50;;;0.80;;
3817;SDS011;1924;48.078;11.516;2023-05-07T12:41:04;31.57;;;0.80;;
3817;SDS011;1924;48.078;11.516;2023-05-07T12:43:32;31.60;;;0.80;;
3817;SDS011;1924;48.078;11.516;2023-05-07T12:46:00;31.60;;;0.80;;
3817;SDS011;1924;48.078;11.516;2023-05-07T12:48:28;31.60;;;0.80;;
3817;SDS011;1924;48.078;11.516;2023-05-07T12:50:55;31.50;;;0.80;;
3817;SDS011;1924;48.078;11.516;2023-05-07T12:53:23;31.50;;;0.80;;
3817;SDS011;1924;48.078;11.516;2023-05-07T12:55:52;31.60;;;0.80;;
3817;SDS011;1924;48.078;11.516;2023-05-07T12:58:24;31.50;;;0.80;;
3817;SDS011;1924;48.078;11.516;2023-05-07T13:00:52;31.50;;;0.80;;
3817;SDS011;1924;48.078;11.516;2023-05-07T13:03:23;31.57;;;0.80;;
3817;SDS011;1924;48.078;11.516;2023-05-07T13:05:51;31.60;;;0.80;;
3817;SDS011;1924;48.078;11.516;2023-05-07T13:08:25;31.60;;;0.80;;
3817;SDS011;1924;48.078;11.516;2023-05-07T13:10:57;31.43;;;0.80;;
3817;SDS011;1924;48.078;11.516;2023-05-07T13:13:26;31.40;;;0.80;;
3817;SDS011;1924;48.078;11.516;2023-05-07T13:15:53;31.50;;;0.80;;
3817;SDS011;1924;48.078;11.516;2023-05-07T13:18:20;31.50;;;0.80;;
3817;SDS011;1924;48.078;11.516;2023-05-07T13:20:47;31.47;;;0.80;;
3817;SDS011;1924;48.078;11.516;2023-05-07T13:23:14;31.40;;;0.80;;
3817;SDS011;1924;48.078;11.516;2023-05-07T13:25:40;31.50;;;0.80;;
3817;SDS011;1924;48.078;11.516;2023-05-07T13:28:07;31.60;;;0.80;;
3817;SDS011;1924;48.078;11.516;2023-05-07T13:30:35;31.40;;;0.80;;
3817;SDS011;1924;48.078;11.516;2023-05-07T13:33:02;31.40;;;0.80;;
3817;SDS011;1924;48.078;11.516;2023-05-07T13:35:29;31.40;;;0.80;;
3817;SDS011;1924;48.078;11.516;2023-05-07T13:37:55;31.47;;;0.80;;
3817;SDS011;1924;48.078;11.516;2023-05-07T13:40:22;31.57;;;0.80;;
3817;SDS011;1924;48.078;11.516;2023-05-07T13:42:50;31.40;;;0.80;;
3817;SDS011;1924;48.078;11.516;2023-05-07T13:45:17;31.50;;;0.80;;
3817;SDS011;1924;48.078;11.516;2023-05-07T13:47:45;31.40;;;0.80;;
3817;SDS011;1924;48.078;11.516;2023-05-07T13:50:14;31.47;;;0.80;;
3817;SDS011;1924;48.078;11.516;2023-05-07T13:52:41;31.47;;;0.80;;
3817;SDS011;1924;48.078;11.516;2023-05-07T13:55:11;31.50;;;0.80;;
3817;SDS011;1924;48.078;11.516;2023-05-07T13:57:38;31.37;;;0.80;;
3817;SDS011;1924;48.078;11.516;2023-05-07T14:00:05;33.20;;;0.80;;
3817;SDS011;1924;48.078;11.516;2023-05-07T14:02:32;31.27;;;0.80;;
3817;SDS011;1924;48.078;11.516;2023-05-07T14:05:01;31.33;;;0.80;;
3817;SDS011;1924;48.078;11.516;2023-05-07T14:07:27;31.30;;;0.73;;
3817;SDS011;1924;48.078;11.516;2023-05-07T14:09:54;31.37;;;0.80;;
3817;SDS011;1924;48.078;11.516;2023-05-07T14:12:21;31.47;;;0.80;;
3817;SDS011;1924;48.078;11.516;2023-05-07T14:14:48;31.17;;;0.80;;
3817;SDS011;1924;48.078;11.516;2023-05-07T14:17:15;31.37;;;0.80;;
3817;SDS011;1924;48.078;11.516;2023-05-07T14:19:43;31.40;;;0.80;;
3817;SDS011;1924;48.078;11.516;2023-05-07T14:22:14;31.37;;;0.80;;
3817;SDS011;1924;48.078;11.516;2023-05-07T14:24:41;31.50;;;0.80;;
3817;SDS011;1924;48.078;11.516;2023-05-07T14:27:08;31.37;;;0.80;;
3817;SDS011;1924;48.078;11.516;2023-05-07T14:29:34;31.40;;;0.80;;
3817;SDS011;1924;48.078;11.516;2023-05-07T14:32:01;31.23;;;0.80;;
3817;SDS011;1924;48.078;11.516;2023-05-07T14:34:28;31.57;;;0.80;;
3817;SDS011;1924;48.078;11.516;2023-05-07T14:36:56;31.40;;;0.80;;
3817;SDS011;1924;48.078;11.516;2023-05-07T14:39:24;31.27;;;0.80;;
3817;SDS011;1924;48.078;11.516;2023-05-07T14:41:51;31.40;;;0.80;;
3817;SDS011;1924;48.078;11.516;2023-05-07T14:44:19;31.57;;;0.80;;
3817;SDS011;1924;48.078;11.516;2023-05-07T14:46:46;31.30;;;0.80;;
3817;SDS011;1924;48.078;11.516;2023-05-07T14:49:13;31.33;;;0.80;;
3817;SDS011;1924;48.078;11.516;2023-05-07T14:51:42;31.40;;;0.80;;
3817;SDS011;1924;48.078;11.516;2023-05-07T14:54:09;31.43;;;0.80;;
3817;SDS011;1924;48.078;11.516;2023-05-07T14:56:37;31.40;;;0.80;;
3817;SDS011;1924;48.078;11.516;2023-05-07T14:59:04;31.30;;;0.80;;
3817;SDS011;1924;48.078;11.516;2023-05-07T15:01:31;31.57;;;0.80;;
3817;SDS011;1924;48.078;11.516;2023-05-07T15:03:58;31.50;;;0.80;;
3817;SDS011;1924;48.078;11.516;2023-05-07T15:06:25;31.40;;;0.80;;
3817;SDS011;1924;48.078;11.516;2023-05-07T15:08:52;31.50;;;0.80;;
3817;SDS011;1924;48.078;11.516;2023-05-07T15:11:19;31.50;;;0.80;;
3817;SDS011;1924;48.078;11.516;2023-05-07T15:13:47;31.37;;;0.80;;
3817;SDS011;1924;48.078;11.516;2023-05-07T15:16:13;31.30;;;0.80;;
3817;SDS011;1924;48.078;11.516;2023-05-07T15:18:40;31.37;;;0.80;;
3817;SDS011;1924;48.078;11.516;2023-05-07T15:21:07;31.40;;;0.80;;
3817;SDS011;1924;48.078;11.516;2023-05-07T15:23:34;31.40;;;0.80;;
3817;SDS011;1924;48.078;11.516;2023-05-07T15:26:01;31.50;;;0.80;;
3817;SDS011;1924;48.078;11.516;2023-05-07T15:28:27;31.47;;;0.80;;
3817;SDS011;1924;48.078;11.516;2023-05-07T15:30:55;31.50;;;0.80;;
3817;SDS011;1924;48.078;11.516;2023-05-07T15:33:23;31.40;;;0.80;;
3817;SDS011;1924;48.078;11.516;2023-05-07T15:35:50;31.40;;;0.80;;
3817;SDS011;1924;48.078;11.516;2023-05-07T15:38:17;31.50;;;0.80;;
3817;SDS011;1924;48.078;11.516;2023-05-07T15:40:43;31.27;;;0.80;;
3817;SDS011;1924;48.078;11.516;2023-05-07T15:43:11;31.50;;;0.80;;
3817;SDS011;1924;48.078;11.516;2023-05-07T15:45:38;31.50;;;0.80;;
3817;SDS011;1924;48.078;11.516;2023-05-07T15:48:07;31.40;;;0.80;;
3817;SDS011;1924;48.078;11.516;2023-05-07T15:50:34;31.47;;;0.80;;
3817;SDS011;1924;48.078;11.516;2023-05-07T15:53:01;31.40;;;0.80;;
3817;SDS011;1924;48.078;11.516;2023-05-07T15:55:28;31.40;;;0.80;;
3817;SDS011;1924;48.078;11.516;2023-05-07T15:57:56;31.43;;;0.80;;
3817;SDS011;1924;48.078;11.516;2023-05-07T16:00:24;31.43;;;0.80;;
3817;SDS011;1924;48.078;11.516;2023-05-07T16:02:52;31.50;;;0.80;;
3817;SDS011;1924;48.078;11.516;2023-05-07T16:05:20;31.40;;;0.80;;
3817;SDS011;1924;48.078;11.516;2023-05-07T16:07:47;31.33;;;0.80;;
3817;SDS011;1924;48.078;11.516;2023-05-07T16:10:14;31.50;;;0.80;;
3817;SDS011;1924;48.078;11.516;2023-05-07T16:12:40;31.53;;;0.80;;
3817;SDS011;1924;48.078;11.516;2023-05-07T16:15:09;31.50;;;0.80;;
3817;SDS011;1924;48.078;11.516;2023-05-07T16:17:36;31.57;;;0.80;;